sensor_id;sensor_type;location;lat;lon;timestamp;pressure;altitude;pressure_sealevel;temperature;humidity
10060;BME280;5069;49.306;8.636;2023-02-13T00:02:41;102597.38;;;5.77;100.00
10060;BME280;5069;49.306;8.636;2023-02-13T00:05:42;102586.28;;;5.87;100.00
10060;BME280;5069;49.306;8.636;2023-02-13T00:08:44;102587.03;;;5.83;100.00
10060;BME280;5069;49.306;8.636;2023-02-13T00:11:45;102588.72;;;5.81;100.00
10060;BME280;5069;49.306;8.636;2023-02-13T00:14:47;102592.09;;;5.75;100.00
10060;BME280;5069;49.306;8.636;2023-02-13T00:17:48;102586.00;;;5.75;100.00
10060;BME280;5069;49.306;8.636;2023-02-13T00:21:07;102589.38;;;5.71;100.00
10060;BME280;5069;49.306;8.636;2023-02-13T00:24:09;102579.53;;;5.58;100.00
10060;BME280;5069;49.306;8.636;2023-02-13T00:27:10;102578.59;;;5.56;100.00
10060;BME280;5069;49.306;8.636;2023-02-13T00:30:12;102580.34;;;5.55;100.00
10060;BME280;5069;49.306;8.636;2023-02-13T00:33:14;102571.50;;;5.50;100.00
10060;BME280;5069;49.306;8.636;2023-02-13T00:36:21;102575.91;;;5.51;100.00
10060;BME280;5069;49.306;8.636;2023-02-13T00:39:22;102567.59;;;5.31;100.00
10060;BME280;5069;49.306;8.636;2023-02-13T00:42:24;102569.19;;;5.25;100.00
10060;BME280;5069;49.306;8.636;2023-02-13T00:45:27;102567.41;;;5.22;100.00
10060;BME280;5069;49.306;8.636;2023-02-13T00:48:30;102566.41;;;5.17;100.00
10060;BME280;5069;49.306;8.636;2023-02-13T00:51:32;102572.53;;;5.19;100.00
10060;BME280;5069;49.306;8.636;2023-02-13T00:54:33;102576.81;;;5.16;100.00
10060;BME280;5069;49.306;8.636;2023-02-13T00:57:35;102567.16;;;5.13;100.00
10060;BME280;5069;49.306;8.636;2023-02-13T01:00:37;102574.25;;;5.17;100.00
10060;BME280;5069;49.306;8.636;2023-02-13T01:03:39;102564.84;;;5.25;100.00
10060;BME280;5069;49.306;8.636;2023-02-13T01:06:40;102569.13;;;5.22;100.00
10060;BME280;5069;49.306;8.636;2023-02-13T01:09:42;102568.25;;;5.21;100.00
10060;BME280;5069;49.306;8.636;2023-02-13T01:12:45;102567.44;;;5.25;100.00
10060;BME280;5069;49.306;8.636;2023-02-13T01:15:47;102571.78;;;5.23;100.00
10060;BME280;5069;49.306;8.636;2023-02-13T01:18:48;102577.91;;;5.25;100.00
10060;BME280;5069;49.306;8.636;2023-02-13T01:21:50;102570.16;;;5.30;100.00
10060;BME280;5069;49.306;8.636;2023-02-13T01:24:52;102573.56;;;5.26;100.00
10060;BME280;5069;49.306;8.636;2023-02-13T01:27:53;102571.84;;;5.26;100.00
10060;BME280;5069;49.306;8.636;2023-02-13T01:30:56;102571.75;;;5.22;100.00
10060;BME280;5069;49.306;8.636;2023-02-13T01:33:58;102574.25;;;5.17;100.00
10060;BME280;5069;49.306;8.636;2023-02-13T01:37:00;102564.69;;;5.18;100.00
10060;BME280;5069;49.306;8.636;2023-02-13T01:40:03;102568.16;;;5.17;100.00
10060;BME280;5069;49.306;8.636;2023-02-13T01:43:08;102569.78;;;5.13;100.00
10060;BME280;5069;49.306;8.636;2023-02-13T01:46:11;102569.19;;;5.25;100.00
10060;BME280;5069;49.306;8.636;2023-02-13T01:49:18;102572.53;;;5.19;100.00
10060;BME280;5069;49.306;8.636;2023-02-13T01:52:21;102562.09;;;5.19;100.00
10060;BME280;5069;49.306;8.636;2023-02-13T01:55:24;102561.03;;;5.11;100.00
10060;BME280;5069;49.306;8.636;2023-02-13T01:58:30;102568.00;;;5.11;100.00
10060;BME280;5069;49.306;8.636;2023-02-13T02:01:33;102568.78;;;5.07;100.00
10060;BME280;5069;49.306;8.636;2023-02-13T02:04:37;102567.75;;;5.02;100.00
10060;BME280;5069;49.306;8.636;2023-02-13T02:07:46;102558.91;;;4.95;100.00
10060;BME280;5069;49.306;8.636;2023-02-13T02:10:57;102575.44;;;4.94;100.00
10060;BME280;5069;49.306;8.636;2023-02-13T02:14:03;102574.47;;;4.90;100.00
10060;BME280;5069;49.306;8.636;2023-02-13T02:17:07;102574.50;;;4.92;100.00
10060;BME280;5069;49.306;8.636;2023-02-13T02:20:14;102574.56;;;4.93;100.00
10060;BME280;5069;49.306;8.636;2023-02-13T02:27:09;102571.94;;;4.93;100.00
10060;BME280;5069;49.306;8.636;2023-02-13T02:30:50;102568.41;;;4.91;100.00
10060;BME280;5069;49.306;8.636;2023-02-13T02:37:46;102561.56;;;4.61;100.00
10060;BME280;5069;49.306;8.636;2023-02-13T02:44:42;102563.50;;;4.03;100.00
10060;BME280;5069;49.306;8.636;2023-02-13T02:47:59;102562.69;;;4.06;100.00
10060;BME280;5069;49.306;8.636;2023-02-13T02:51:23;102564.34;;;4.02;100.00
10060;BME280;5069;49.306;8.636;2023-02-13T02:54:33;102571.19;;;3.99;100.00
10060;BME280;5069;49.306;8.636;2023-02-13T02:58:20;102570.31;;;3.98;100.00
10060;BME280;5069;49.306;8.636;2023-02-13T03:01:44;102572.06;;;3.99;100.00
10060;BME280;5069;49.306;8.636;2023-02-13T03:05:26;102578.88;;;3.94;100.00
10060;BME280;5069;49.306;8.636;2023-02-13T03:08:53;102569.16;;;3.89;100.00
10060;BME280;5069;49.306;8.636;2023-02-13T03:12:22;102573.53;;;3.90;100.00
10060;BME280;5069;49.306;8.636;2023-02-13T03:15:43;102577.09;;;3.92;100.00
10060;BME280;5069;49.306;8.636;2023-02-13T03:19:04;102575.66;;;4.03;100.00
10060;BME280;5069;49.306;8.636;2023-02-13T03:25:37;102579.34;;;4.09;100.00
10060;BME280;5069;49.306;8.636;2023-02-13T03:28:58;102580.06;;;4.04;100.00
10060;BME280;5069;49.306;8.636;2023-02-13T03:36:03;102583.75;;;4.12;100.00
10060;BME280;5069;49.306;8.636;2023-02-13T03:39:39;102591.56;;;4.12;100.00
10060;BME280;5069;49.306;8.636;2023-02-13T03:42:48;102601.00;;;4.07;100.00
10060;BME280;5069;49.306;8.636;2023-02-13T03:45:53;102597.28;;;3.99;100.00
10060;BME280;5069;49.306;8.636;2023-02-13T03:48:58;102604.66;;;3.54;100.00
10060;BME280;5069;49.306;8.636;2023-02-13T03:52:25;102598.88;;;3.09;100.00
10060;BME280;5069;49.306;8.636;2023-02-13T03:55:37;102602.78;;;2.95;100.00
10060;BME280;5069;49.306;8.636;2023-02-13T03:59:01;102613.00;;;2.88;100.00
10060;BME280;5069;49.306;8.636;2023-02-13T04:02:21;102609.44;;;2.86;100.00
10060;BME280;5069;49.306;8.636;2023-02-13T04:05:27;102612.19;;;2.91;100.00
10060;BME280;5069;49.306;8.636;2023-02-13T04:08:29;102614.72;;;2.88;100.00
10060;BME280;5069;49.306;8.636;2023-02-13T04:11:37;102618.91;;;2.83;100.00
10060;BME280;5069;49.306;8.636;2023-02-13T04:14:51;102612.81;;;2.82;100.00
10060;BME280;5069;49.306;8.636;2023-02-13T04:18:11;102606.63;;;2.79;100.00
10060;BME280;5069;49.306;8.636;2023-02-13T04:21:13;102613.16;;;2.68;100.00
10060;BME280;5069;49.306;8.636;2023-02-13T04:24:15;102608.81;;;2.67;100.00
10060;BME280;5069;49.306;8.636;2023-02-13T04:27:17;102615.25;;;2.78;100.00
10060;BME280;5069;49.306;8.636;2023-02-13T04:30:18;102608.97;;;2.71;100.00
10060;BME280;5069;49.306;8.636;2023-02-13T04:33:20;102609.56;;;2.64;100.00
10060;BME280;5069;49.306;8.636;2023-02-13T04:36:21;102608.44;;;2.56;100.00
10060;BME280;5069;49.306;8.636;2023-02-13T04:39:23;102608.09;;;2.47;100.00
10060;BME280;5069;49.306;8.636;2023-02-13T04:42:24;102612.44;;;2.46;100.00
10060;BME280;5069;49.306;8.636;2023-02-13T04:45:26;102610.31;;;2.60;100.00
10060;BME280;5069;49.306;8.636;2023-02-13T04:48:27;102598.47;;;2.95;100.00
10060;BME280;5069;49.306;8.636;2023-02-13T04:51:29;102599.63;;;3.05;100.00
10060;BME280;5069;49.306;8.636;2023-02-13T04:54:30;102600.97;;;3.19;100.00
10060;BME280;5069;49.306;8.636;2023-02-13T04:57:32;102598.66;;;3.28;100.00
10060;BME280;5069;49.306;8.636;2023-02-13T05:00:33;102597.84;;;3.30;100.00
10060;BME280;5069;49.306;8.636;2023-02-13T05:03:34;102596.28;;;3.36;100.00
10060;BME280;5069;49.306;8.636;2023-02-13T05:06:36;102594.53;;;3.36;100.00
10060;BME280;5069;49.306;8.636;2023-02-13T05:09:38;102595.41;;;3.37;100.00
10060;BME280;5069;49.306;8.636;2023-02-13T05:12:42;102598.00;;;3.35;100.00
10060;BME280;5069;49.306;8.636;2023-02-13T05:15:43;102593.69;;;3.36;100.00
10060;BME280;5069;49.306;8.636;2023-02-13T05:18:45;102600.63;;;3.35;100.00
10060;BME280;5069;49.306;8.636;2023-02-13T05:21:46;102604.97;;;3.36;100.00
10060;BME280;5069;49.306;8.636;2023-02-13T05:25:06;102598.16;;;3.40;100.00
10060;BME280;5069;49.306;8.636;2023-02-13T05:28:08;102599.72;;;3.35;100.00
10060;BME280;5069;49.306;8.636;2023-02-13T05:31:27;102602.47;;;3.39;100.00
10060;BME280;5069;49.306;8.636;2023-02-13T05:34:29;102599.50;;;3.55;100.00
10060;BME280;5069;49.306;8.636;2023-02-13T05:37:31;102604.69;;;3.55;100.00
10060;BME280;5069;49.306;8.636;2023-02-13T05:40:32;102602.34;;;3.36;100.00
10060;BME280;5069;49.306;8.636;2023-02-13T05:43:33;102603.16;;;3.33;100.00
10060;BME280;5069;49.306;8.636;2023-02-13T05:46:39;102597.94;;;3.33;100.00
10060;BME280;5069;49.306;8.636;2023-02-13T05:49:41;102599.72;;;3.35;100.00
10060;BME280;5069;49.306;8.636;2023-02-13T05:52:42;102595.00;;;3.23;100.00
10060;BME280;5069;49.306;8.636;2023-02-13T05:55:43;102595.06;;;3.24;100.00
10060;BME280;5069;49.306;8.636;2023-02-13T05:58:45;102591.28;;;3.15;100.00
10060;BME280;5069;49.306;8.636;2023-02-13T06:01:46;102586.16;;;3.18;100.00
10060;BME280;5069;49.306;8.636;2023-02-13T06:04:48;102596.47;;;3.15;100.00
10060;BME280;5069;49.306;8.636;2023-02-13T06:07:49;102587.75;;;3.13;100.00
10060;BME280;5069;49.306;8.636;2023-02-13T06:10:51;102584.09;;;3.08;100.00
10060;BME280;5069;49.306;8.636;2023-02-13T06:13:52;102584.94;;;3.07;100.00
10060;BME280;5069;49.306;8.636;2023-02-13T06:16:54;102594.34;;;3.02;100.00
10060;BME280;5069;49.306;8.636;2023-02-13T06:19:55;102600.25;;;2.96;100.00
10060;BME280;5069;49.306;8.636;2023-02-13T06:22:57;102602.88;;;2.98;100.00
10060;BME280;5069;49.306;8.636;2023-02-13T06:26:06;102600.28;;;2.98;100.00
10060;BME280;5069;49.306;8.636;2023-02-13T06:29:08;102602.88;;;2.98;100.00
10060;BME280;5069;49.306;8.636;2023-02-13T06:32:09;102602.66;;;2.91;100.00
10060;BME280;5069;49.306;8.636;2023-02-13T06:35:11;102606.97;;;2.89;100.00
10060;BME280;5069;49.306;8.636;2023-02-13T06:38:12;102612.88;;;2.84;100.00
10060;BME280;5069;49.306;8.636;2023-02-13T06:41:13;102615.34;;;2.81;100.00
10060;BME280;5069;49.306;8.636;2023-02-13T06:44:15;102619.00;;;2.86;100.00
10060;BME280;5069;49.306;8.636;2023-02-13T06:47:16;102617.28;;;2.86;100.00
10060;BME280;5069;49.306;8.636;2023-02-13T06:50:18;102619.78;;;2.83;100.00
10060;BME280;5069;49.306;8.636;2023-02-13T06:53:19;102629.53;;;2.89;100.00
10060;BME280;5069;49.306;8.636;2023-02-13T06:56:25;102634.53;;;2.83;100.00
10060;BME280;5069;49.306;8.636;2023-02-13T06:59:26;102630.00;;;2.77;100.00
10060;BME280;5069;49.306;8.636;2023-02-13T07:02:28;102623.91;;;2.77;100.00
10060;BME280;5069;49.306;8.636;2023-02-13T07:05:29;102625.56;;;2.75;100.00
10060;BME280;5069;49.306;8.636;2023-02-13T07:08:31;102630.09;;;2.80;100.00
10060;BME280;5069;49.306;8.636;2023-02-13T07:11:32;102630.91;;;2.79;100.00
10060;BME280;5069;49.306;8.636;2023-02-13T07:14:34;102638.84;;;2.82;100.00
10060;BME280;5069;49.306;8.636;2023-02-13T07:17:35;102631.88;;;2.81;100.00
10060;BME280;5069;49.306;8.636;2023-02-13T07:20:36;102628.38;;;2.81;100.00
10060;BME280;5069;49.306;8.636;2023-02-13T07:23:38;102639.06;;;2.88;100.00
10060;BME280;5069;49.306;8.636;2023-02-13T07:26:40;102632.47;;;3.00;100.00
10060;BME280;5069;49.306;8.636;2023-02-13T07:29:41;102639.97;;;2.90;100.00
10060;BME280;5069;49.306;8.636;2023-02-13T07:32:42;102636.88;;;3.01;100.00
10060;BME280;5069;49.306;8.636;2023-02-13T07:35:48;102638.81;;;3.08;100.00
10060;BME280;5069;49.306;8.636;2023-02-13T07:38:50;102634.66;;;3.13;100.00
10060;BME280;5069;49.306;8.636;2023-02-13T07:41:51;102638.09;;;3.12;100.00
10060;BME280;5069;49.306;8.636;2023-02-13T07:44:55;102650.50;;;3.19;100.00
10060;BME280;5069;49.306;8.636;2023-02-13T07:47:57;102637.34;;;3.16;100.00
10060;BME280;5069;49.306;8.636;2023-02-13T07:50:59;102644.47;;;3.21;100.00
10060;BME280;5069;49.306;8.636;2023-02-13T07:54:02;102632.34;;;3.22;100.00
10060;BME280;5069;49.306;8.636;2023-02-13T07:57:03;102632.47;;;3.26;100.00
10060;BME280;5069;49.306;8.636;2023-02-13T08:00:05;102635.41;;;3.37;100.00
10060;BME280;5069;49.306;8.636;2023-02-13T08:03:11;102641.91;;;3.50;100.00
10060;BME280;5069;49.306;8.636;2023-02-13T08:06:13;102631.84;;;3.62;100.00
10060;BME280;5069;49.306;8.636;2023-02-13T08:09:19;102638.34;;;3.74;100.00
10060;BME280;5069;49.306;8.636;2023-02-13T08:12:41;102642.78;;;3.79;100.00
10060;BME280;5069;49.306;8.636;2023-02-13T08:15:42;102636.81;;;3.83;100.00
10060;BME280;5069;49.306;8.636;2023-02-13T08:18:44;102641.34;;;3.88;100.00
10060;BME280;5069;49.306;8.636;2023-02-13T08:21:46;102639.97;;;4.01;100.00
10060;BME280;5069;49.306;8.636;2023-02-13T08:24:47;102639.03;;;3.99;100.00
10060;BME280;5069;49.306;8.636;2023-02-13T08:27:49;102635.94;;;4.12;100.00
10060;BME280;5069;49.306;8.636;2023-02-13T08:30:50;102645.59;;;4.14;100.00
10060;BME280;5069;49.306;8.636;2023-02-13T08:33:51;102629.59;;;4.34;100.00
10060;BME280;5069;49.306;8.636;2023-02-13T08:36:53;102628.31;;;4.49;100.00
10060;BME280;5069;49.306;8.636;2023-02-13T08:39:54;102631.81;;;4.51;100.00
10060;BME280;5069;49.306;8.636;2023-02-13T08:43:03;102625.91;;;4.58;100.00
10060;BME280;5069;49.306;8.636;2023-02-13T08:46:05;102623.47;;;4.65;100.00
10060;BME280;5069;49.306;8.636;2023-02-13T08:49:06;102629.09;;;4.80;100.00
10060;BME280;5069;49.306;8.636;2023-02-13T08:52:08;102627.66;;;4.92;100.00
10060;BME280;5069;49.306;8.636;2023-02-13T08:55:09;102627.72;;;4.94;100.00
10060;BME280;5069;49.306;8.636;2023-02-13T08:58:11;102632.22;;;4.99;100.00
10060;BME280;5069;49.306;8.636;2023-02-13T09:01:12;102630.78;;;5.12;100.00
10060;BME280;5069;49.306;8.636;2023-02-13T09:04:14;102634.50;;;5.22;100.00
10060;BME280;5069;49.306;8.636;2023-02-13T09:07:16;102640.56;;;5.21;100.00
10060;BME280;5069;49.306;8.636;2023-02-13T09:10:17;102637.38;;;5.32;100.00
10060;BME280;5069;49.306;8.636;2023-02-13T09:13:19;102633.88;;;5.32;100.00
10060;BME280;5069;49.306;8.636;2023-02-13T09:16:21;102644.50;;;5.39;100.00
10060;BME280;5069;49.306;8.636;2023-02-13T09:19:23;102638.59;;;5.48;100.00
10060;BME280;5069;49.306;8.636;2023-02-13T09:22:24;102632.72;;;5.57;100.00
10060;BME280;5069;49.306;8.636;2023-02-13T09:25:26;102633.97;;;5.74;100.00
10060;BME280;5069;49.306;8.636;2023-02-13T09:28:32;102635.16;;;5.88;100.00
10060;BME280;5069;49.306;8.636;2023-02-13T09:31:33;102640.59;;;5.97;100.00
10060;BME280;5069;49.306;8.636;2023-02-13T09:34:35;102638.97;;;6.02;100.00
10060;BME280;5069;49.306;8.636;2023-02-13T09:37:36;102639.22;;;6.14;100.00
10060;BME280;5069;49.306;8.636;2023-02-13T09:40:43;102644.00;;;6.35;100.00
10060;BME280;5069;49.306;8.636;2023-02-13T09:43:55;102643.09;;;6.35;100.00
10060;BME280;5069;49.306;8.636;2023-02-13T09:47:03;102634.75;;;6.54;100.00
10060;BME280;5069;49.306;8.636;2023-02-13T09:53:20;102633.44;;;6.79;100.00
10060;BME280;5069;49.306;8.636;2023-02-13T09:56:47;102635.25;;;6.81;100.00
10060;BME280;5069;49.306;8.636;2023-02-13T10:00:33;102635.28;;;6.84;99.55
10060;BME280;5069;49.306;8.636;2023-02-13T10:03:40;102633.16;;;7.12;98.84
10060;BME280;5069;49.306;8.636;2023-02-13T10:06:46;102630.56;;;7.15;98.42
10060;BME280;5069;49.306;8.636;2023-02-13T10:10:01;102639.91;;;7.53;96.17
10060;BME280;5069;49.306;8.636;2023-02-13T10:13:10;102642.56;;;7.55;96.16
10060;BME280;5069;49.306;8.636;2023-02-13T10:16:15;102638.38;;;7.70;94.47
10060;BME280;5069;49.306;8.636;2023-02-13T10:22:31;102637.75;;;7.88;95.26
10060;BME280;5069;49.306;8.636;2023-02-13T10:25:45;102631.00;;;8.07;93.23
10060;BME280;5069;49.306;8.636;2023-02-13T10:28:56;102639.81;;;8.12;92.25
10060;BME280;5069;49.306;8.636;2023-02-13T10:32:22;102631.13;;;8.17;92.53
10060;BME280;5069;49.306;8.636;2023-02-13T10:35:30;102626.16;;;8.39;89.16
10060;BME280;5069;49.306;8.636;2023-02-13T10:38:33;102621.03;;;8.52;87.60
10060;BME280;5069;49.306;8.636;2023-02-13T10:41:59;102619.34;;;8.60;87.81
10060;BME280;5069;49.306;8.636;2023-02-13T10:48:47;102615.97;;;8.70;87.75
10060;BME280;5069;49.306;8.636;2023-02-13T10:52:08;102609.09;;;8.89;85.29
10060;BME280;5069;49.306;8.636;2023-02-13T10:58:52;102601.41;;;9.12;84.27
10060;BME280;5069;49.306;8.636;2023-02-13T11:02:01;102598.97;;;9.38;81.70
10060;BME280;5069;49.306;8.636;2023-02-13T11:11:34;102598.03;;;9.34;79.86
10060;BME280;5069;49.306;8.636;2023-02-13T11:14:37;102597.22;;;9.38;78.67
10060;BME280;5069;49.306;8.636;2023-02-13T11:17:39;102587.66;;;9.59;78.43
10060;BME280;5069;49.306;8.636;2023-02-13T11:20:42;102590.38;;;9.71;76.57
10060;BME280;5069;49.306;8.636;2023-02-13T11:23:51;102590.38;;;9.71;76.79
10060;BME280;5069;49.306;8.636;2023-02-13T11:27:07;102593.13;;;10.04;75.86
10060;BME280;5069;49.306;8.636;2023-02-13T11:33:26;102584.34;;;9.96;77.27
10060;BME280;5069;49.306;8.636;2023-02-13T11:36:32;102573.78;;;9.90;76.05
10060;BME280;5069;49.306;8.636;2023-02-13T11:39:34;102573.72;;;9.81;76.40
10060;BME280;5069;49.306;8.636;2023-02-13T11:42:35;102577.34;;;10.07;75.65
10060;BME280;5069;49.306;8.636;2023-02-13T11:45:37;102571.22;;;10.11;74.99
10060;BME280;5069;49.306;8.636;2023-02-13T11:48:39;102567.78;;;10.43;74.41
10060;BME280;5069;49.306;8.636;2023-02-13T11:51:45;102562.56;;;10.68;72.87
10060;BME280;5069;49.306;8.636;2023-02-13T11:54:54;102566.06;;;11.04;72.15
10060;BME280;5069;49.306;8.636;2023-02-13T11:57:59;102555.50;;;10.98;69.43
10060;BME280;5069;49.306;8.636;2023-02-13T12:04:21;102552.81;;;11.25;69.15
10060;BME280;5069;49.306;8.636;2023-02-13T12:07:29;102548.44;;;11.26;67.65
10060;BME280;5069;49.306;8.636;2023-02-13T12:10:32;102552.78;;;11.42;68.15
10060;BME280;5069;49.306;8.636;2023-02-13T12:13:37;102545.72;;;11.53;66.79
10060;BME280;5069;49.306;8.636;2023-02-13T12:16:44;102540.38;;;11.62;64.59
10060;BME280;5069;49.306;8.636;2023-02-13T12:19:50;102541.31;;;11.55;64.87
10060;BME280;5069;49.306;8.636;2023-02-13T12:23:05;102533.28;;;11.79;64.62
10060;BME280;5069;49.306;8.636;2023-02-13T12:26:32;102531.53;;;11.84;62.78
10060;BME280;5069;49.306;8.636;2023-02-13T12:32:59;102520.91;;;11.90;63.87
10060;BME280;5069;49.306;8.636;2023-02-13T12:39:36;102515.53;;;12.12;62.64
10060;BME280;5069;49.306;8.636;2023-02-13T12:49:29;102507.38;;;12.37;63.28
10060;BME280;5069;49.306;8.636;2023-02-13T12:59:09;102502.75;;;12.70;62.14
10060;BME280;5069;49.306;8.636;2023-02-13T13:02:37;102502.53;;;12.93;60.29
10060;BME280;5069;49.306;8.636;2023-02-13T13:06:00;102506.78;;;13.04;59.54
10060;BME280;5069;49.306;8.636;2023-02-13T13:09:21;102486.44;;;13.14;59.03
10060;BME280;5069;49.306;8.636;2023-02-13T13:12:48;102491.63;;;13.23;56.38
10060;BME280;5069;49.306;8.636;2023-02-13T13:19:42;102479.78;;;13.54;55.41
10060;BME280;5069;49.306;8.636;2023-02-13T13:26:31;102472.81;;;13.46;55.50
10060;BME280;5069;49.306;8.636;2023-02-13T13:29:46;102471.63;;;13.70;55.61
10060;BME280;5069;49.306;8.636;2023-02-13T13:33:08;102467.06;;;13.79;56.01
10060;BME280;5069;49.306;8.636;2023-02-13T13:36:36;102477.84;;;13.65;55.57
10060;BME280;5069;49.306;8.636;2023-02-13T13:39:45;102475.34;;;13.55;55.91
10060;BME280;5069;49.306;8.636;2023-02-13T13:43:12;102476.25;;;13.55;56.33
10060;BME280;5069;49.306;8.636;2023-02-13T13:47:19;102461.88;;;13.72;56.54
10060;BME280;5069;49.306;8.636;2023-02-13T13:49:54;102469.47;;;13.96;56.04
10060;BME280;5069;49.306;8.636;2023-02-13T13:53:06;102465.00;;;14.01;55.70
10060;BME280;5069;49.306;8.636;2023-02-13T13:56:08;102462.22;;;14.07;54.86
10060;BME280;5069;49.306;8.636;2023-02-13T13:59:18;102450.53;;;14.19;54.93
10060;BME280;5069;49.306;8.636;2023-02-13T14:05:28;102460.06;;;14.33;54.19
10060;BME280;5069;49.306;8.636;2023-02-13T14:11:42;102450.78;;;14.59;54.25
10060;BME280;5069;49.306;8.636;2023-02-13T14:14:47;102443.56;;;14.67;53.37
10060;BME280;5069;49.306;8.636;2023-02-13T14:17:50;102438.59;;;14.48;53.40
10060;BME280;5069;49.306;8.636;2023-02-13T14:20:59;102447.03;;;14.72;52.81
10060;BME280;5069;49.306;8.636;2023-02-13T14:24:01;102434.13;;;14.52;53.60
10060;BME280;5069;49.306;8.636;2023-02-13T14:27:21;102445.03;;;14.31;53.75
10060;BME280;5069;49.306;8.636;2023-02-13T14:30:33;102439.84;;;14.25;54.57
10060;BME280;5069;49.306;8.636;2023-02-13T14:33:35;102434.69;;;14.17;54.59
10060;BME280;5069;49.306;8.636;2023-02-13T14:36:41;102427.56;;;14.19;55.08
10060;BME280;5069;49.306;8.636;2023-02-13T14:46:36;102421.78;;;13.94;55.38
10060;BME280;5069;49.306;8.636;2023-02-13T14:49:42;102427.09;;;13.94;55.48
10060;BME280;5069;49.306;8.636;2023-02-13T14:52:45;102417.69;;;13.72;56.06
10060;BME280;5069;49.306;8.636;2023-02-13T14:55:54;102420.69;;;13.46;57.18
10060;BME280;5069;49.306;8.636;2023-02-13T14:59:09;102422.66;;;13.32;57.85
10060;BME280;5069;49.306;8.636;2023-02-13T15:02:21;102427.34;;;13.04;59.38
10060;BME280;5069;49.306;8.636;2023-02-13T15:05:28;102423.91;;;12.98;59.12
10060;BME280;5069;49.306;8.636;2023-02-13T15:08:40;102417.06;;;12.78;60.06
10060;BME280;5069;49.306;8.636;2023-02-13T15:11:43;102426.84;;;12.70;61.07
10060;BME280;5069;49.306;8.636;2023-02-13T15:14:44;102423.47;;;12.55;61.61
10060;BME280;5069;49.306;8.636;2023-02-13T15:17:46;102422.53;;;12.60;62.01
10060;BME280;5069;49.306;8.636;2023-02-13T15:20:48;102416.50;;;12.46;62.15
10060;BME280;5069;49.306;8.636;2023-02-13T15:23:52;102427.16;;;12.40;62.33
10060;BME280;5069;49.306;8.636;2023-02-13T15:27:00;102419.41;;;12.17;63.38
10060;BME280;5069;49.306;8.636;2023-02-13T15:33:22;102414.16;;;12.10;62.96
10060;BME280;5069;49.306;8.636;2023-02-13T15:36:25;102408.13;;;11.95;63.18
10060;BME280;5069;49.306;8.636;2023-02-13T15:39:30;102416.97;;;11.85;63.53
10060;BME280;5069;49.306;8.636;2023-02-13T15:42:32;102411.66;;;11.94;63.48
10060;BME280;5069;49.306;8.636;2023-02-13T15:45:34;102413.53;;;11.77;63.80
10060;BME280;5069;49.306;8.636;2023-02-13T15:48:35;102418.81;;;11.68;64.78
10060;BME280;5069;49.306;8.636;2023-02-13T15:51:37;102424.09;;;11.74;64.85
10060;BME280;5069;49.306;8.636;2023-02-13T15:54:49;102408.31;;;11.59;65.50
10060;BME280;5069;49.306;8.636;2023-02-13T15:57:54;102413.59;;;11.57;66.18
10060;BME280;5069;49.306;8.636;2023-02-13T16:01:01;102410.09;;;11.51;66.76
10060;BME280;5069;49.306;8.636;2023-02-13T16:04:05;102411.88;;;11.52;67.21
10060;BME280;5069;49.306;8.636;2023-02-13T16:07:11;102413.63;;;11.56;67.11
10060;BME280;5069;49.306;8.636;2023-02-13T16:10:30;102412.69;;;11.66;66.78
10060;BME280;5069;49.306;8.636;2023-02-13T16:13:32;102411.88;;;11.55;67.14
10060;BME280;5069;49.306;8.636;2023-02-13T16:16:42;102409.25;;;11.49;68.00
10060;BME280;5069;49.306;8.636;2023-02-13T16:23:06;102410.19;;;11.37;68.77
10060;BME280;5069;49.306;8.636;2023-02-13T16:26:14;102408.47;;;11.33;68.96
10060;BME280;5069;49.306;8.636;2023-02-13T16:29:18;102413.81;;;11.19;69.61
10060;BME280;5069;49.306;8.636;2023-02-13T16:32:32;102405.00;;;11.11;70.52
10060;BME280;5069;49.306;8.636;2023-02-13T16:35:35;102405.94;;;11.09;71.47
10060;BME280;5069;49.306;8.636;2023-02-13T16:38:48;102412.97;;;11.04;71.90
10060;BME280;5069;49.306;8.636;2023-02-13T16:41:50;102410.38;;;10.90;72.44
10060;BME280;5069;49.306;8.636;2023-02-13T16:45:23;102411.28;;;10.82;73.89
10060;BME280;5069;49.306;8.636;2023-02-13T16:48:25;102422.72;;;10.73;74.32
10060;BME280;5069;49.306;8.636;2023-02-13T16:55:00;102431.56;;;10.32;76.80
10060;BME280;5069;49.306;8.636;2023-02-13T16:58:17;102431.53;;;10.13;78.15
10060;BME280;5069;49.306;8.636;2023-02-13T17:01:18;102426.25;;;9.99;79.35
10060;BME280;5069;49.306;8.636;2023-02-13T17:04:22;102427.97;;;9.88;79.79
10060;BME280;5069;49.306;8.636;2023-02-13T17:07:30;102436.75;;;9.78;81.00
10060;BME280;5069;49.306;8.636;2023-02-13T17:10:33;102442.84;;;9.63;82.41
10060;BME280;5069;49.306;8.636;2023-02-13T17:13:35;102449.81;;;9.43;83.78
10060;BME280;5069;49.306;8.636;2023-02-13T17:16:38;102447.13;;;9.35;85.21
10060;BME280;5069;49.306;8.636;2023-02-13T17:19:39;102455.88;;;9.30;85.37
10060;BME280;5069;49.306;8.636;2023-02-13T17:22:43;102452.38;;;9.26;85.83
10060;BME280;5069;49.306;8.636;2023-02-13T17:25:45;102453.25;;;9.22;85.60
10060;BME280;5069;49.306;8.636;2023-02-13T17:28:48;102454.94;;;9.17;85.41
10060;BME280;5069;49.306;8.636;2023-02-13T17:31:52;102451.47;;;9.17;85.16
10060;BME280;5069;49.306;8.636;2023-02-13T17:34:55;102452.31;;;9.17;84.84
10060;BME280;5069;49.306;8.636;2023-02-13T17:37:57;102457.56;;;9.14;84.86
10060;BME280;5069;49.306;8.636;2023-02-13T17:40:59;102466.31;;;9.07;84.45
10060;BME280;5069;49.306;8.636;2023-02-13T17:44:01;102463.66;;;8.99;84.71
10060;BME280;5069;49.306;8.636;2023-02-13T17:47:02;102466.22;;;8.92;84.73
10060;BME280;5069;49.306;8.636;2023-02-13T17:50:04;102464.41;;;8.83;85.16
10060;BME280;5069;49.306;8.636;2023-02-13T17:53:22;102464.38;;;8.79;85.42
10060;BME280;5069;49.306;8.636;2023-02-13T17:56:24;102469.63;;;8.76;85.11
10060;BME280;5069;49.306;8.636;2023-02-13T17:59:25;102467.88;;;8.76;85.54
10060;BME280;5069;49.306;8.636;2023-02-13T18:02:26;102468.75;;;8.75;85.04
10060;BME280;5069;49.306;8.636;2023-02-13T18:05:28;102463.47;;;8.70;84.45
10060;BME280;5069;49.306;8.636;2023-02-13T18:08:31;102471.31;;;8.64;85.15